Time;durP1;ratioP1;P1;durP2;ratioP2;P2;SDS_P1;SDS_P2;PMS_P1;PMS_P2;Temp;Humidity;BMP_temperature;BMP_pressure;BME280_temperature;BME280_humidity;BME280_pressure;Samples;Min_cycle;Max_cycle;Signal;HPM_P1;HPM_P2
2021/12/02 00:11:18;;;;;;;3.00;1.40;;;7.60;99.90;;;;;;2586156;54;20022;31
2021/12/02 01:22:47;;;;;;;1.35;0.30;;;8.00;99.90;;;;;;2585207;54;20030;31
2021/12/02 01:26:00;;;;;;;1.63;0.30;;;8.10;99.90;;;;;;2587536;46;20833;31
2021/12/02 01:44:26;;;;;;;1.35;0.20;;;8.20;99.90;;;;;;2586145;54;20112;31
2021/12/02 02:29:48;;;;;;;0.45;0.10;;;7.20;99.90;;;;;;2586393;54;20036;31
2021/12/02 02:33:07;;;;;;;0.43;0.10;;;7.10;99.90;;;;;;2586129;54;20084;31
2021/12/02 02:35:45;;;;;;;1.15;0.20;;;7.00;99.90;;;;;;2603785;46;20950;31
2021/12/02 02:39:05;;;;;;;0.33;0.10;;;6.90;99.90;;;;;;2586172;54;20037;31
2021/12/02 02:42:08;;;;;;;1.85;0.15;;;6.90;99.90;;;;;;2604436;46;20037;31
2021/12/02 02:44:54;;;;;;;1.15;0.10;;;6.70;99.90;;;;;;2585795;54;20913;31
2021/12/02 03:13:48;;;;;;;2.57;0.67;;;6.30;99.90;;;;;;2585610;54;20081;31
2021/12/02 03:27:28;;;;;;;0.73;0.20;;;6.10;99.90;;;;;;2586413;54;20022;31
2021/12/02 03:30:26;;;;;;;0.70;0.20;;;6.10;99.90;;;;;;2604653;46;20826;31
2021/12/02 03:33:16;;;;;;;0.32;0.20;;;6.00;99.90;;;;;;2586568;54;20148;31
2021/12/02 03:38:54;;;;;;;1.80;0.30;;;6.00;99.90;;;;;;2586378;54;20806;31
2021/12/02 03:46:01;;;;;;;1.90;0.30;;;5.90;99.90;;;;;;2585926;54;20890;31
2021/12/02 03:49:26;;;;;;;1.17;0.33;;;5.90;99.90;;;;;;2586125;54;20103;31
2021/12/02 03:53:07;;;;;;;2.20;0.30;;;5.90;99.90;;;;;;2586187;54;20069;31
2021/12/02 03:55:58;;;;;;;1.30;0.30;;;5.90;99.90;;;;;;2595276;46;20980;31
2021/12/02 03:58:46;;;;;;;0.68;0.22;;;6.00;99.90;;;;;;2592790;46;20869;31
2021/12/02 04:44:25;;;;;;;1.15;0.30;;;5.50;99.90;;;;;;2585497;54;20859;31
2021/12/02 04:50:08;;;;;;;2.85;0.50;;;5.50;99.90;;;;;;2586102;54;20746;31
2021/12/02 04:56:05;;;;;;;1.75;0.60;;;5.40;99.90;;;;;;2586668;54;19930;31
2021/12/02 05:40:44;;;;;;;2.87;0.60;;;5.10;99.90;;;;;;2586181;54;20880;31
2021/12/02 05:43:26;;;;;;;2.25;0.60;;;5.00;99.90;;;;;;2603051;46;20046;31
2021/12/02 05:53:00;;;;;;;2.25;0.60;;;5.00;99.90;;;;;;2585939;54;21411;31
2021/12/02 05:59:00;;;;;;;2.10;0.50;;;4.90;99.90;;;;;;2585434;54;20037;31
2021/12/02 06:02:06;;;;;;;2.85;0.80;;;4.90;99.90;;;;;;2585224;54;20038;31
2021/12/02 06:07:57;;;;;;;4.82;1.27;;;4.90;99.90;;;;;;2590044;46;20023;31
2021/12/02 06:11:00;;;;;;;8.55;1.88;;;4.90;99.90;;;;;;2590512;46;20733;31
2021/12/02 06:23:35;;;;;;;4.30;1.00;;;4.80;99.90;;;;;;2586406;54;20765;31
2021/12/02 06:30:11;;;;;;;3.50;0.80;;;4.80;99.90;;;;;;2585970;54;20038;31
2021/12/02 06:36:09;;;;;;;4.70;0.70;;;4.70;99.90;;;;;;2593726;46;20828;31
2021/12/02 06:39:08;;;;;;;4.40;0.75;;;4.70;99.90;;;;;;2585767;54;20022;31
2021/12/02 06:41:54;;;;;;;4.80;1.30;;;4.70;99.90;;;;;;2586333;54;20029;31
2021/12/02 06:44:50;;;;;;;3.15;0.90;;;4.70;99.90;;;;;;2586244;54;20045;31
2021/12/02 06:50:48;;;;;;;4.75;1.05;;;4.70;99.90;;;;;;2585804;54;20799;31
2021/12/02 06:53:48;;;;;;;3.10;0.70;;;4.70;99.90;;;;;;2603584;46;20089;31
2021/12/02 07:03:53;;;;;;;2.40;0.77;;;4.80;99.90;;;;;;2585897;54;19931;31
2021/12/02 07:10:03;;;;;;;3.83;0.83;;;4.80;99.90;;;;;;2589920;46;20254;31
2021/12/02 07:13:11;;;;;;;1.90;0.70;;;4.80;99.90;;;;;;2585648;54;20026;31
2021/12/02 07:29:03;;;;;;;2.40;0.60;;;4.90;99.90;;;;;;2585251;54;20085;31
2021/12/02 07:32:24;;;;;;;2.10;0.47;;;4.90;99.90;;;;;;2585866;54;20054;31
2021/12/02 07:37:29;;;;;;;2.30;0.80;;;5.00;99.90;;;;;;2585964;54;21058;31
2021/12/02 07:40:02;;;;;;;4.57;0.85;;;5.10;99.90;;;;;;2586049;54;21480;31
2021/12/02 07:42:36;;;;;;;3.88;1.10;;;5.10;99.90;;;;;;2603604;47;20852;31
2021/12/02 07:45:15;;;;;;;3.25;0.70;;;5.10;99.90;;;;;;2584991;54;20015;31
2021/12/02 07:47:53;;;;;;;6.78;1.38;;;5.10;99.90;;;;;;2584926;54;20958;31
2021/12/02 07:50:38;;;;;;;4.60;1.60;;;5.20;99.90;;;;;;2585923;54;20837;31
2021/12/02 07:53:27;;;;;;;7.00;2.75;;;5.20;99.90;;;;;;2586046;54;20049;31
2021/12/02 07:56:09;;;;;;;3.55;0.90;;;5.30;99.90;;;;;;2586192;54;20935;31
2021/12/02 07:58:50;;;;;;;4.30;1.13;;;5.30;99.90;;;;;;2585537;54;20027;31
2021/12/02 08:01:29;;;;;;;2.72;0.70;;;5.40;99.90;;;;;;2585926;54;20258;31
2021/12/02 08:07:04;;;;;;;6.10;1.30;;;5.30;99.90;;;;;;2586072;54;20097;31
2021/12/02 08:09:47;;;;;;;3.63;0.80;;;5.40;99.90;;;;;;2588288;47;20827;31
2021/12/02 08:12:21;;;;;;;5.70;1.30;;;5.40;99.90;;;;;;2604870;46;20759;31
2021/12/02 08:14:58;;;;;;;2.22;0.40;;;5.40;99.90;;;;;;2585800;54;20902;31
2021/12/02 08:17:45;;;;;;;5.38;0.90;;;5.30;99.90;;;;;;2586495;54;20081;31
2021/12/02 08:20:26;;;;;;;17.55;4.25;;;5.40;99.90;;;;;;2586423;54;20022;31
2021/12/02 08:25:57;;;;;;;5.68;2.08;;;5.40;99.90;;;;;;2605193;46;20026;31
2021/12/02 08:28:32;;;;;;;10.40;2.90;;;5.40;99.90;;;;;;2605073;46;20057;31
2021/12/02 08:31:07;;;;;;;6.78;2.72;;;5.50;99.90;;;;;;2586774;54;21302;31
2021/12/02 08:33:52;;;;;;;10.18;3.45;;;5.60;99.90;;;;;;2586478;54;20034;31
2021/12/02 08:36:32;;;;;;;12.05;3.50;;;5.80;99.90;;;;;;2586511;54;20022;31
2021/12/02 08:39:45;;;;;;;8.95;1.65;;;6.20;99.90;;;;;;2604425;46;20030;31
2021/12/02 08:42:20;;;;;;;8.30;2.28;;;6.80;99.90;;;;;;2586538;54;20120;31
2021/12/02 08:44:57;;;;;;;13.53;2.80;;;7.20;99.90;;;;;;2586443;54;20891;31
2021/12/02 08:47:34;;;;;;;7.75;1.30;;;7.50;99.90;;;;;;2586600;54;20031;31
2021/12/02 08:50:13;;;;;;;3.80;1.43;;;7.90;99.90;;;;;;2586726;54;20885;31
2021/12/02 08:52:47;;;;;;;4.32;1.35;;;7.90;99.90;;;;;;2586432;54;20128;31
2021/12/02 08:55:21;;;;;;;20.33;2.75;;;8.10;99.90;;;;;;2586516;54;20340;31
2021/12/02 08:57:55;;;;;;;12.00;1.95;;;8.30;99.90;;;;;;2586506;54;20049;31
2021/12/02 09:00:33;;;;;;;5.75;1.75;;;8.50;99.90;;;;;;2605066;46;20093;31
2021/12/02 09:06:10;;;;;;;56.90;7.30;;;9.00;99.90;;;;;;2604444;46;20768;31
2021/12/02 09:08:43;;;;;;;5.10;1.75;;;9.20;99.90;;;;;;2584443;54;20027;31
2021/12/02 09:11:18;;;;;;;64.85;9.85;;;9.40;99.90;;;;;;2585480;54;20135;31
2021/12/02 09:13:56;;;;;;;35.95;4.00;;;9.60;99.90;;;;;;2605024;46;20242;31
2021/12/02 09:16:32;;;;;;;4.90;0.77;;;9.70;99.90;;;;;;2586349;54;20919;31
2021/12/02 09:19:11;;;;;;;3.15;1.08;;;9.80;99.90;;;;;;2585490;54;20862;31
2021/12/02 09:21:54;;;;;;;7.95;1.30;;;10.00;99.90;;;;;;2602598;46;20034;31
2021/12/02 09:24:32;;;;;;;9.77;1.10;;;10.10;99.90;;;;;;2605017;46;20049;31
2021/12/02 09:27:08;;;;;;;7.40;0.95;;;10.00;99.90;;;;;;2586407;54;20910;31
2021/12/02 09:29:47;;;;;;;8.10;0.90;;;10.00;99.90;;;;;;2586261;54;20861;31
2021/12/02 09:32:33;;;;;;;11.52;2.20;;;9.90;99.90;;;;;;2586622;54;20748;31
2021/12/02 09:35:11;;;;;;;;;;;9.80;99.90;;;;;;2586275;54;20033;31
2021/12/02 09:37:50;;;;;;;3.70;0.60;;;9.50;99.90;;;;;;2586323;54;19942;31
2021/12/02 09:40:26;;;;;;;7.10;0.85;;;9.30;99.90;;;;;;2586606;54;20859;31
2021/12/02 09:43:12;;;;;;;10.55;1.20;;;9.00;99.90;;;;;;2585937;54;20115;31
2021/12/02 09:45:47;;;;;;;8.55;1.05;;;8.80;99.90;;;;;;2586563;54;20859;31
2021/12/02 09:54:22;;;;;;;8.30;1.00;;;7.90;99.90;;;;;;2604344;46;20019;31
2021/12/02 09:57:01;;;;;;;19.65;12.05;;;7.60;99.90;;;;;;2586435;54;20858;31
2021/12/02 09:59:48;;;;;;;8.65;1.75;;;7.60;99.90;;;;;;2586503;54;20038;31
2021/12/02 10:02:24;;;;;;;6.15;0.90;;;7.60;99.90;;;;;;2586319;54;20120;31
2021/12/02 10:05:07;;;;;;;3.90;0.55;;;7.50;99.90;;;;;;2684512;39;22326;31
2021/12/02 10:07:56;;;;;;;3.30;0.82;;;7.50;99.90;;;;;;2586517;54;20026;31
2021/12/02 10:10:37;;;;;;;6.85;1.00;;;7.30;99.90;;;;;;2586605;54;20026;31
2021/12/02 10:16:10;;;;;;;3.00;0.70;;;6.90;99.90;;;;;;2594275;46;20073;31
2021/12/02 10:21:51;;;;;;;4.82;1.05;;;6.80;99.90;;;;;;2586118;54;20054;31
2021/12/02 10:24:28;;;;;;;5.75;0.90;;;6.90;99.90;;;;;;2604702;46;20897;31
2021/12/02 10:27:08;;;;;;;5.03;1.30;;;6.90;99.90;;;;;;2586331;54;20838;31
2021/12/02 10:29:53;;;;;;;8.88;1.33;;;7.00;99.90;;;;;;2589820;46;20029;31
2021/12/02 10:32:38;;;;;;;6.32;0.88;;;7.00;99.90;;;;;;2586062;54;20839;31
2021/12/02 10:35:20;;;;;;;4.35;0.80;;;6.90;99.90;;;;;;2693446;39;21177;31
2021/12/02 10:38:24;;;;;;;4.55;0.98;;;6.90;99.90;;;;;;2586351;54;20861;31
2021/12/02 10:43:36;;;;;;;8.60;2.05;;;6.80;99.90;;;;;;2585309;54;20161;31
2021/12/02 10:46:15;;;;;;;5.82;1.67;;;6.80;99.90;;;;;;2604897;46;20034;31
2021/12/02 10:49:17;;;;;;;3.87;1.00;;;6.80;99.90;;;;;;2586046;54;20085;31
2021/12/02 10:52:09;;;;;;;8.40;1.00;;;6.70;99.90;;;;;;2585974;54;20242;31
2021/12/02 10:54:49;;;;;;;5.05;1.45;;;6.70;99.90;;;;;;2586362;54;20853;31
2021/12/02 10:57:28;;;;;;;16.00;2.73;;;6.70;99.90;;;;;;2604403;46;19934;31
2021/12/02 11:00:16;;;;;;;5.18;1.05;;;6.70;99.90;;;;;;2604359;46;20049;31
2021/12/02 11:02:53;;;;;;;9.40;1.20;;;6.80;99.90;;;;;;2586086;54;20920;31
2021/12/02 11:05:32;;;;;;;10.68;1.25;;;6.70;99.90;;;;;;2586368;54;20066;31
2021/12/02 11:08:22;;;;;;;11.57;1.80;;;6.70;99.90;;;;;;2604067;46;20064;31
2021/12/02 11:11:04;;;;;;;3.90;1.33;;;6.70;99.90;;;;;;2585816;54;20061;31
2021/12/02 11:13:42;;;;;;;5.10;1.13;;;6.70;99.90;;;;;;2585952;54;20036;31
2021/12/02 11:16:35;;;;;;;4.47;0.73;;;6.70;99.90;;;;;;2585576;54;20918;31
2021/12/02 11:19:24;;;;;;;6.57;1.00;;;6.70;99.90;;;;;;2586016;54;20885;31
2021/12/02 11:22:07;;;;;;;5.45;1.25;;;6.70;99.90;;;;;;2586090;54;21152;31
2021/12/02 11:24:41;;;;;;;6.18;1.52;;;6.70;99.90;;;;;;2701747;39;20285;31
2021/12/02 11:27:18;;;;;;;15.37;1.87;;;6.60;99.90;;;;;;2585201;54;20961;31
2021/12/02 11:29:59;;;;;;;10.40;1.90;;;6.60;99.90;;;;;;2586223;54;20864;31
2021/12/02 11:32:42;;;;;;;3.70;1.23;;;6.60;99.90;;;;;;2585833;54;20022;31
2021/12/02 11:35:18;;;;;;;6.63;1.95;;;6.50;99.90;;;;;;2585872;54;20082;31
2021/12/02 11:37:55;;;;;;;5.93;1.48;;;6.60;99.90;;;;;;2585561;54;20031;31
2021/12/02 11:40:32;;;;;;;7.60;2.00;;;6.50;99.90;;;;;;2586303;54;20026;31
2021/12/02 11:43:08;;;;;;;6.67;1.30;;;6.50;99.90;;;;;;2594500;47;20041;31
2021/12/02 11:45:46;;;;;;;;;;;6.50;99.90;;;;;;2586742;54;20242;31
2021/12/02 11:48:24;;;;;;;6.50;1.10;;;6.50;99.90;;;;;;2586937;54;19954;31
2021/12/02 11:51:06;;;;;;;8.48;1.30;;;6.40;99.90;;;;;;2586573;54;20038;31
2021/12/02 11:53:40;;;;;;;4.80;1.35;;;6.30;99.90;;;;;;2588481;46;20955;31
2021/12/02 11:56:13;;;;;;;9.57;3.75;;;6.30;99.90;;;;;;2586510;54;20057;31
2021/12/02 11:58:45;;;;;;;11.00;2.50;;;6.30;99.90;;;;;;2585775;54;20034;31
2021/12/02 12:01:19;;;;;;;10.70;2.33;;;6.20;99.90;;;;;;2586812;54;20777;31
2021/12/02 12:04:04;;;;;;;6.90;2.10;;;6.20;99.90;;;;;;2586794;54;21209;31
2021/12/02 12:06:41;;;;;;;9.98;1.98;;;6.20;99.90;;;;;;2604158;46;20034;31
2021/12/02 12:09:18;;;;;;;10.25;2.20;;;6.20;99.90;;;;;;2604756;46;20500;31
2021/12/02 12:11:54;;;;;;;6.57;2.30;;;6.20;99.90;;;;;;2586797;54;20042;31
2021/12/02 12:14:36;;;;;;;6.50;2.10;;;6.30;99.90;;;;;;2586540;54;20767;31
2021/12/02 12:19:45;;;;;;;5.60;1.65;;;6.30;99.90;;;;;;2586773;54;20089;31
2021/12/02 12:22:28;;;;;;;5.32;1.58;;;6.20;99.90;;;;;;2586518;54;20026;31
2021/12/02 12:25:09;;;;;;;6.40;2.03;;;6.20;99.90;;;;;;2586519;54;20091;31
2021/12/02 12:27:43;;;;;;;5.93;1.40;;;6.20;99.90;;;;;;2586560;54;20042;31
2021/12/02 12:30:25;;;;;;;5.50;1.05;;;6.10;99.90;;;;;;2586662;54;20889;31
2021/12/02 12:33:10;;;;;;;5.07;1.15;;;6.10;99.90;;;;;;2586512;54;20111;31
2021/12/02 12:36:04;;;;;;;5.83;1.93;;;6.00;99.90;;;;;;2586466;54;20859;31
2021/12/02 12:38:48;;;;;;;8.70;1.88;;;6.00;99.90;;;;;;2586825;54;20873;31
2021/12/02 12:41:23;;;;;;;5.60;1.40;;;6.10;99.90;;;;;;2586570;54;21021;31
2021/12/02 12:43:59;;;;;;;6.47;2.63;;;6.10;99.90;;;;;;2586681;54;20907;31
2021/12/02 12:46:34;;;;;;;8.75;2.40;;;6.00;99.90;;;;;;2604913;46;20089;31
2021/12/02 12:49:19;;;;;;;7.20;2.40;;;6.00;99.90;;;;;;2605082;46;20044;31
2021/12/02 12:51:58;;;;;;;5.95;2.13;;;6.00;99.90;;;;;;2586614;54;20246;31
2021/12/02 12:54:34;;;;;;;5.63;1.93;;;5.90;99.90;;;;;;2586615;54;20995;31
2021/12/02 12:57:10;;;;;;;4.32;1.48;;;5.90;99.90;;;;;;2604631;46;20842;31
2021/12/02 12:59:54;;;;;;;5.60;1.52;;;5.90;99.90;;;;;;2586862;54;20802;31
2021/12/02 13:02:36;;;;;;;3.85;1.15;;;5.90;99.90;;;;;;2586543;54;20026;31
2021/12/02 13:05:12;;;;;;;5.10;2.10;;;5.90;99.90;;;;;;2586644;54;20085;31
2021/12/02 13:08:05;;;;;;;5.30;1.83;;;5.90;99.90;;;;;;2586522;54;20918;31
2021/12/02 13:10:54;;;;;;;4.20;1.92;;;5.90;99.90;;;;;;2586716;54;20885;31
2021/12/02 13:13:30;;;;;;;6.40;1.87;;;5.90;99.90;;;;;;2586381;54;20089;31
2021/12/02 13:16:14;;;;;;;5.97;1.80;;;5.90;99.90;;;;;;2586525;54;20822;31
2021/12/02 13:18:50;;;;;;;5.97;1.65;;;5.90;99.90;;;;;;2604859;46;20858;31
2021/12/02 13:21:33;;;;;;;4.10;1.20;;;5.80;99.90;;;;;;2586471;54;20073;31
2021/12/02 13:24:11;;;;;;;7.00;2.22;;;5.80;99.90;;;;;;2586423;54;20530;31
2021/12/02 13:26:46;;;;;;;7.65;1.70;;;5.70;99.90;;;;;;2605061;46;20938;31
2021/12/02 13:29:21;;;;;;;4.80;1.45;;;5.70;99.90;;;;;;2586435;54;20767;31
2021/12/02 13:31:57;;;;;;;3.50;1.10;;;5.70;99.90;;;;;;2604579;46;20059;31
2021/12/02 13:34:32;;;;;;;7.70;1.45;;;5.70;99.90;;;;;;2586463;54;20060;31
2021/12/02 13:37:06;;;;;;;9.00;2.30;;;5.60;99.90;;;;;;2586762;54;20085;31
2021/12/02 13:39:43;;;;;;;5.55;1.80;;;5.50;99.90;;;;;;2604928;46;20825;31
2021/12/02 13:42:20;;;;;;;3.28;1.08;;;5.50;99.90;;;;;;2586278;54;20026;31
2021/12/02 13:44:54;;;;;;;;;;;5.50;99.90;;;;;;2586528;54;21038;31
2021/12/02 13:47:33;;;;;;;3.45;1.45;;;5.50;99.90;;;;;;2586311;54;19946;31
2021/12/02 13:50:06;;;;;;;5.83;2.43;;;5.40;99.90;;;;;;2586186;54;20120;31
2021/12/02 13:52:49;;;;;;;14.30;2.20;;;5.30;99.90;;;;;;2604634;46;20030;31
2021/12/02 13:55:29;;;;;;;8.15;1.85;;;5.30;99.90;;;;;;2586291;54;20093;31
2021/12/02 14:00:33;;;;;;;3.75;1.30;;;5.20;99.90;;;;;;2586401;54;20733;31
2021/12/02 14:03:16;;;;;;;6.07;2.70;;;5.30;99.90;;;;;;2586394;54;20031;31
2021/12/02 14:05:53;;;;;;;9.35;4.05;;;5.10;99.90;;;;;;2586232;54;20955;31
2021/12/02 14:08:29;;;;;;;10.75;3.75;;;5.20;99.90;;;;;;2585862;54;20057;31
2021/12/02 14:11:05;;;;;;;9.40;3.55;;;5.10;99.90;;;;;;2586229;54;20088;31
2021/12/02 14:13:40;;;;;;;8.90;3.85;;;5.10;99.90;;;;;;2586444;54;20048;31
2021/12/02 14:16:16;;;;;;;10.60;2.70;;;5.10;99.90;;;;;;2604753;46;20022;31
2021/12/02 14:18:52;;;;;;;51.63;26.23;;;4.90;99.90;;;;;;2586069;54;20274;31
2021/12/02 14:21:37;;;;;;;6.07;2.45;;;5.00;99.90;;;;;;2585517;54;20028;31
2021/12/02 14:24:15;;;;;;;6.72;2.55;;;5.00;99.90;;;;;;2586178;54;20103;31
2021/12/02 14:26:50;;;;;;;8.00;2.40;;;4.90;99.90;;;;;;2586126;54;20822;31
2021/12/02 14:29:24;;;;;;;;;;;4.90;99.90;;;;;;2586316;54;20027;31
2021/12/02 14:31:57;;;;;;;10.50;2.35;;;4.90;99.90;;;;;;2602047;46;20009;31
2021/12/02 14:34:34;;;;;;;7.70;2.30;;;4.80;99.90;;;;;;2586420;54;20881;31
2021/12/02 14:37:14;;;;;;;7.70;2.40;;;4.70;99.90;;;;;;2585881;54;20058;31
2021/12/02 14:39:49;;;;;;;6.40;2.50;;;4.70;99.90;;;;;;2586163;54;20940;31
2021/12/02 14:42:29;;;;;;;8.70;2.08;;;4.60;99.90;;;;;;2586379;54;20960;31
2021/12/02 14:45:04;;;;;;;7.47;2.58;;;4.50;99.90;;;;;;2586233;54;20037;31
2021/12/02 14:47:39;;;;;;;7.85;2.08;;;4.40;99.90;;;;;;2595449;46;20080;31
2021/12/02 14:50:16;;;;;;;11.15;3.10;;;4.40;99.90;;;;;;2586368;54;20731;31
2021/12/02 14:52:51;;;;;;;6.05;2.85;;;4.30;99.90;;;;;;2586090;54;21282;31
2021/12/02 14:55:25;;;;;;;9.15;2.50;;;4.20;99.90;;;;;;2586112;54;21000;31
2021/12/02 14:58:01;;;;;;;9.60;2.15;;;4.20;99.90;;;;;;2604650;46;20889;31
2021/12/02 15:00:33;;;;;;;9.10;2.85;;;4.10;99.90;;;;;;2604329;46;20971;31
2021/12/02 15:03:08;;;;;;;6.00;3.20;;;4.10;99.90;;;;;;2586276;54;20046;31
2021/12/02 15:05:47;;;;;;;5.80;2.80;;;4.00;99.90;;;;;;2604718;46;20042;31
2021/12/02 15:08:24;;;;;;;15.07;3.45;;;4.10;99.90;;;;;;2585132;54;20148;31
2021/12/02 15:11:00;;;;;;;10.60;3.72;;;3.90;99.90;;;;;;2586084;54;20768;31
2021/12/02 15:13:46;;;;;;;13.68;4.65;;;3.90;99.90;;;;;;2586167;54;20922;31
2021/12/02 15:16:21;;;;;;;12.25;4.75;;;3.80;99.90;;;;;;2585959;54;20548;31
2021/12/02 15:18:57;;;;;;;11.75;3.70;;;3.80;99.90;;;;;;2585907;54;20033;31
2021/12/02 15:21:36;;;;;;;8.30;2.95;;;3.70;99.90;;;;;;2587161;54;20881;31
2021/12/02 15:24:12;;;;;;;11.02;3.55;;;3.70;99.90;;;;;;2586890;54;20948;31
2021/12/02 15:26:44;;;;;;;11.27;3.45;;;3.70;99.90;;;;;;2586915;54;20855;31
2021/12/02 15:29:21;;;;;;;11.90;4.60;;;3.70;99.90;;;;;;2605485;46;20081;31
2021/12/02 15:31:56;;;;;;;13.17;4.47;;;3.60;99.90;;;;;;2586809;54;20056;31
2021/12/02 15:34:31;;;;;;;21.23;6.82;;;3.60;99.90;;;;;;2586817;54;20258;31
2021/12/02 15:37:06;;;;;;;20.13;8.90;;;3.60;99.90;;;;;;2586899;54;20023;31
2021/12/02 15:39:44;;;;;;;17.70;8.52;;;3.60;99.90;;;;;;2586932;54;20046;31
2021/12/02 15:42:17;;;;;;;20.38;7.93;;;3.50;99.90;;;;;;2586749;54;20027;31
2021/12/02 15:44:59;;;;;;;14.55;6.85;;;3.50;99.90;;;;;;2586799;54;20851;31
2021/12/02 15:47:33;;;;;;;18.05;6.70;;;3.50;99.90;;;;;;2586898;54;20863;31
2021/12/02 15:50:12;;;;;;;19.50;8.90;;;3.50;99.90;;;;;;2605193;46;20124;31
2021/12/02 15:52:48;;;;;;;20.35;8.30;;;3.50;99.90;;;;;;2586826;54;19941;31
2021/12/02 15:55:22;;;;;;;20.48;8.18;;;3.40;99.90;;;;;;2586843;54;21003;31
2021/12/02 15:57:57;;;;;;;15.70;8.20;;;3.40;99.90;;;;;;2586613;54;20002;31
2021/12/02 16:00:35;;;;;;;17.88;7.53;;;3.40;99.90;;;;;;2586771;54;20838;31
2021/12/02 16:03:13;;;;;;;15.52;7.00;;;3.30;99.90;;;;;;2587202;54;20800;31
2021/12/02 16:05:58;;;;;;;22.08;10.35;;;3.30;99.90;;;;;;2586624;54;20932;31
2021/12/02 16:08:40;;;;;;;26.00;11.65;;;3.20;99.90;;;;;;2586518;54;20034;31
2021/12/02 16:11:27;;;;;;;28.10;11.95;;;3.20;99.90;;;;;;2586507;54;20472;31
2021/12/02 16:13:59;;;;;;;28.60;11.82;;;3.10;99.90;;;;;;2586631;54;20052;31
2021/12/02 16:16:41;;;;;;;26.10;11.20;;;3.10;99.90;;;;;;2586534;54;20050;31
2021/12/02 16:19:19;;;;;;;23.70;9.83;;;3.00;99.90;;;;;;2604853;46;20478;31
2021/12/02 16:21:54;;;;;;;20.67;8.60;;;2.90;99.90;;;;;;2586583;54;21203;31
2021/12/02 16:24:25;;;;;;;20.52;8.27;;;2.90;99.90;;;;;;2586585;54;20746;31
2021/12/02 16:26:56;;;;;;;22.77;11.10;;;2.90;99.90;;;;;;2586488;54;20033;31
2021/12/02 16:29:30;;;;;;;27.63;11.88;;;2.80;99.90;;;;;;2586826;54;20865;31
2021/12/02 16:32:10;;;;;;;30.40;14.20;;;2.80;99.90;;;;;;2586451;54;20037;31
2021/12/02 16:34:47;;;;;;;34.27;14.33;;;2.70;99.90;;;;;;2586730;54;20033;31
2021/12/02 16:37:23;;;;;;;38.97;17.20;;;2.70;99.90;;;;;;2586461;54;20033;31
2021/12/02 16:40:05;;;;;;;38.95;16.85;;;2.70;99.90;;;;;;2586495;54;20917;31
2021/12/02 16:42:41;;;;;;;37.03;17.83;;;2.60;99.90;;;;;;2586507;54;20092;31
2021/12/02 16:45:15;;;;;;;29.20;14.33;;;2.50;99.90;;;;;;2586496;54;21238;31
2021/12/02 16:47:51;;;;;;;29.05;13.85;;;2.50;99.90;;;;;;2586585;54;21246;31
2021/12/02 16:50:28;;;;;;;26.20;13.87;;;2.50;99.90;;;;;;2586649;54;20022;31
2021/12/02 16:53:02;;;;;;;21.98;12.45;;;2.50;99.90;;;;;;2605125;46;20052;31
2021/12/02 16:55:34;;;;;;;20.38;10.80;;;2.40;99.90;;;;;;2586297;54;20820;31
2021/12/02 16:58:08;;;;;;;19.30;8.65;;;2.40;99.90;;;;;;2586493;54;20854;31
2021/12/02 17:00:41;;;;;;;21.42;8.75;;;2.40;99.90;;;;;;2586140;54;20091;31
2021/12/02 17:03:37;;;;;;;18.83;9.23;;;2.40;99.90;;;;;;2605075;46;20908;31
2021/12/02 17:06:28;;;;;;;21.70;8.90;;;2.30;99.90;;;;;;2586475;54;20048;31
2021/12/02 17:09:05;;;;;;;17.52;8.60;;;2.30;99.90;;;;;;2586321;54;20772;31
2021/12/02 17:11:38;;;;;;;22.77;10.55;;;2.40;99.90;;;;;;2586631;54;20030;31
2021/12/02 17:14:12;;;;;;;21.92;10.07;;;2.40;99.90;;;;;;2604899;46;20072;31
2021/12/02 17:16:45;;;;;;;26.05;12.68;;;2.40;99.90;;;;;;2586325;54;20793;31
2021/12/02 17:19:22;;;;;;;30.77;13.27;;;2.40;99.90;;;;;;2585426;54;20038;31
2021/12/02 17:21:55;;;;;;;32.05;15.35;;;2.40;99.90;;;;;;2586417;54;20053;31
2021/12/02 17:24:29;;;;;;;36.45;17.60;;;2.40;99.90;;;;;;2585604;54;20049;31
2021/12/02 17:27:07;;;;;;;43.83;21.17;;;2.40;99.90;;;;;;2586565;54;20820;31
2021/12/02 17:29:47;;;;;;;34.50;17.30;;;2.40;99.90;;;;;;2586591;54;20918;31
2021/12/02 17:32:23;;;;;;;31.50;15.20;;;2.30;99.90;;;;;;2604817;46;20908;31
2021/12/02 17:35:00;;;;;;;;;;;2.30;99.90;;;;;;2586490;54;20081;31
2021/12/02 17:37:33;;;;;;;23.15;11.95;;;2.30;99.90;;;;;;2592949;46;20792;31
2021/12/02 17:40:12;;;;;;;24.42;10.88;;;2.20;99.90;;;;;;2586503;54;20068;31
2021/12/02 17:42:46;;;;;;;24.45;11.23;;;2.20;99.90;;;;;;2586535;54;20875;31
2021/12/02 17:45:26;;;;;;;28.80;12.65;;;2.20;99.90;;;;;;2604728;46;20082;31
2021/12/02 17:48:00;;;;;;;27.70;13.25;;;2.10;99.90;;;;;;2586734;54;20918;31
2021/12/02 17:50:39;;;;;;;27.05;12.55;;;2.10;99.90;;;;;;2585495;54;20053;31
2021/12/02 17:53:10;;;;;;;20.05;9.07;;;2.10;99.90;;;;;;2585345;54;20030;31
2021/12/02 17:55:45;;;;;;;16.75;7.68;;;2.00;99.90;;;;;;2585366;54;20089;31
2021/12/02 17:58:19;;;;;;;17.50;6.65;;;2.00;99.90;;;;;;2585379;54;20023;31
2021/12/02 18:00:56;;;;;;;14.98;6.15;;;1.80;99.90;;;;;;2604586;46;20054;31
2021/12/02 18:06:06;;;;;;;20.57;7.37;;;1.80;99.90;;;;;;2586309;54;20053;31
2021/12/02 18:08:50;;;;;;;20.70;7.95;;;1.70;99.90;;;;;;2585891;54;21125;31
2021/12/02 18:11:24;;;;;;;15.95;7.65;;;1.70;99.90;;;;;;2586509;54;20873;31
2021/12/02 18:13:59;;;;;;;17.53;8.90;;;1.70;99.90;;;;;;2586566;54;21140;31
2021/12/02 18:16:32;;;;;;;18.85;8.43;;;1.70;99.90;;;;;;2604915;46;20251;31
2021/12/02 18:19:07;;;;;;;23.50;11.77;;;1.70;99.90;;;;;;2586290;54;20725;31
2021/12/02 18:21:45;;;;;;;26.73;12.27;;;1.60;99.90;;;;;;2586356;54;20089;31
2021/12/02 18:24:23;;;;;;;31.37;15.57;;;1.60;99.90;;;;;;2604635;46;20115;31
2021/12/02 18:26:56;;;;;;;25.15;13.45;;;1.60;99.90;;;;;;2604401;46;21091;31
2021/12/02 18:29:32;;;;;;;31.02;15.68;;;1.60;99.90;;;;;;2586414;54;20855;31
2021/12/02 18:32:06;;;;;;;28.85;14.88;;;1.60;99.90;;;;;;2586126;54;20030;31
2021/12/02 18:34:42;;;;;;;26.98;12.45;;;1.60;99.90;;;;;;2586153;54;20093;31
2021/12/02 18:37:22;;;;;;;22.80;11.52;;;1.60;99.90;;;;;;2604846;46;20936;31
2021/12/02 18:39:58;;;;;;;24.90;12.50;;;1.60;99.90;;;;;;2585817;54;20050;31
2021/12/02 18:42:35;;;;;;;23.30;12.30;;;1.60;99.90;;;;;;2585216;54;20140;31
2021/12/02 18:45:14;;;;;;;27.02;12.32;;;1.50;99.90;;;;;;2585370;54;20052;31
2021/12/02 18:47:51;;;;;;;28.33;11.73;;;1.50;99.90;;;;;;2586039;54;20052;31
2021/12/02 18:50:26;;;;;;;27.35;12.68;;;1.40;99.90;;;;;;2585804;54;20076;31
2021/12/02 18:53:03;;;;;;;20.75;11.20;;;1.40;99.90;;;;;;2586206;54;20898;31
2021/12/02 18:55:39;;;;;;;25.40;11.70;;;1.30;99.90;;;;;;2585849;54;20061;31
2021/12/02 18:58:13;;;;;;;26.50;10.63;;;1.30;99.90;;;;;;2585720;54;20768;31
2021/12/02 19:00:52;;;;;;;27.20;12.90;;;1.30;99.90;;;;;;2585930;54;20740;31
2021/12/02 19:03:30;;;;;;;27.33;11.67;;;1.20;99.90;;;;;;2584978;54;20932;31
2021/12/02 19:06:12;;;;;;;20.15;11.48;;;1.20;99.90;;;;;;2586295;54;20736;31
2021/12/02 19:23:19;;;;;;;21.95;10.02;;;1.00;99.90;;;;;;2585971;54;20066;31
2021/12/02 19:26:12;;;;;;;24.95;9.80;;;1.00;99.90;;;;;;2586175;54;20161;31
2021/12/02 19:28:48;;;;;;;17.05;10.05;;;1.00;99.90;;;;;;2586211;54;20920;31
2021/12/02 19:31:25;;;;;;;20.63;9.27;;;0.90;99.90;;;;;;2585953;54;20808;31
2021/12/02 19:34:02;;;;;;;25.33;12.23;;;0.90;99.90;;;;;;2604405;47;20818;31
2021/12/02 19:36:36;;;;;;;29.48;12.65;;;0.90;99.90;;;;;;2585880;54;20992;31
2021/12/02 19:39:10;;;;;;;33.75;14.45;;;1.00;99.90;;;;;;2602407;47;20031;31
2021/12/02 19:41:47;;;;;;;31.00;15.57;;;0.90;99.90;;;;;;2586104;54;20919;31
2021/12/02 19:44:23;;;;;;;32.70;15.32;;;0.90;99.90;;;;;;2604275;47;20031;31
2021/12/02 19:46:58;;;;;;;32.05;14.93;;;0.90;99.90;;;;;;2607190;54;20027;31
2021/12/02 19:49:31;;;;;;;22.30;11.60;;;0.90;99.90;;;;;;2587229;47;21012;31
2021/12/02 19:52:07;;;;;;;22.30;11.05;;;0.80;99.90;;;;;;2629624;39;20678;31
2021/12/02 19:54:39;;;;;;;21.63;10.05;;;0.80;99.90;;;;;;2626831;54;20851;31
2021/12/02 19:57:15;;;;;;;22.10;9.13;;;0.80;99.90;;;;;;2620448;47;20041;31
2021/12/02 19:59:51;;;;;;;19.50;9.25;;;0.80;99.90;;;;;;2615780;54;20021;31
2021/12/02 20:02:24;;;;;;;16.52;7.93;;;0.80;99.90;;;;;;2615101;54;20069;31
2021/12/02 20:04:56;;;;;;;24.25;8.65;;;0.80;99.90;;;;;;2621598;54;20014;31
2021/12/02 20:07:28;;;;;;;21.13;9.00;;;0.80;99.90;;;;;;2631992;54;20049;-76
2021/12/02 20:10:11;;;;;;;15.30;7.38;;;0.90;99.90;;;;;;2631824;54;20018;-76
2021/12/02 20:12:50;;;;;;;19.90;6.90;;;0.80;99.90;;;;;;2617619;54;20022;-72
2021/12/02 20:15:35;;;;;;;15.27;6.63;;;0.80;99.90;;;;;;2631713;54;20082;-78
2021/12/02 20:18:11;;;;;;;15.10;6.72;;;0.80;99.90;;;;;;2634548;39;20588;-77
2021/12/02 20:20:43;;;;;;;21.90;7.93;;;0.80;99.90;;;;;;2631251;54;20603;-76
2021/12/02 20:23:21;;;;;;;20.95;8.80;;;0.80;99.90;;;;;;2631369;54;20042;-76
2021/12/02 20:26:01;;;;;;;21.48;9.15;;;0.90;99.90;;;;;;2631577;54;20038;-76
2021/12/02 20:28:38;;;;;;;29.45;10.85;;;0.80;99.90;;;;;;2631503;54;20027;-77